メインページ
METAR-TAF:

METAR-TAF

空港 :

函館空港

函館, 日本

緯度: 41-46N, 経度: 140-49E, 海抜: 33m

現時点の気象観測

当レポートは1時間7分前の11:00(UTC)に作成
西/南西の風 13kt
気温 12°C
湿度 71%
気圧 1017 hPa
視程10km以上
高度2500ftの雲はほとんどない

METAR: RJCH 201100Z 25013KT 9999 FEW025 12/07 Q1017

時間: 21:07 (12:07 UTC)

予報

当レポートは57分前の11:10(UTC)に作成
予報は20日の 12時(UTC)から 21日の 18時(UTC)まで有効
西の風 8kt
視程10km以上
高度2000ftの雲はほとんどない
21日の 00時(UTC)から 21日の 03時(UTC)まで徐々に
南/南西の風 10kt

TAF: RJCH 201110Z 2012/2118 28008KT 9999 FEW020 BECMG 2100/2103 21010KT

4,000以上の空港の気象観測と天気予報(METAR報とTAF報)

利用可能な観測所は地図上に黄色い丸と赤い丸で示す。

丸の上にカーソルを重ねると観測所名を参照できる。

次にクリックすると気象観測と天気予報を参照できる。

マップの切り替え:黒色「×」印の緑ボタンをクリックして拡大、「-」印の緑ボタンをクリックして縮小、緑色の三角印をクリックして隣りの地図に切り替え


METAR-TAF: